createdAt,value
2024-04-22T00:00:10.781Z,76.33
2024-04-22T00:02:37.402Z,76.57
2024-04-22T00:05:04.248Z,76.70
2024-04-22T00:07:30.983Z,76.32
2024-04-22T00:09:57.591Z,76.65
2024-04-22T00:12:24.186Z,76.39
2024-04-22T00:14:50.734Z,76.15
2024-04-22T00:17:17.320Z,76.55
2024-04-22T00:19:44.039Z,76.66
2024-04-22T00:22:10.781Z,76.96
2024-04-22T00:24:37.339Z,77.16
2024-04-22T00:27:04.623Z,77.70
2024-04-22T00:29:31.271Z,78.16
2024-04-22T00:31:57.913Z,77.95
2024-04-22T00:34:24.534Z,77.95
2024-04-22T00:36:51.538Z,78.17
2024-04-22T00:39:18.182Z,78.11
2024-04-22T00:41:44.770Z,78.31
2024-04-22T00:44:11.333Z,78.68
2024-04-22T00:46:38.082Z,78.53
2024-04-22T00:49:04.776Z,79.05
2024-04-22T00:51:32.570Z,79.23
2024-04-22T00:54:00.665Z,79.27
2024-04-22T00:56:30.017Z,79.17
2024-04-22T00:58:59.282Z,79.26
2024-04-22T01:01:27.515Z,79.33
2024-04-22T01:03:55.076Z,79.85
2024-04-22T01:06:21.648Z,80.27
2024-04-22T01:08:48.202Z,80.36
2024-04-22T01:11:15.248Z,80.41
2024-04-22T01:13:41.987Z,80.77
2024-04-22T01:16:08.995Z,80.90
2024-04-22T01:18:35.547Z,81.18
2024-04-22T01:21:02.177Z,81.32
2024-04-22T01:23:28.722Z,81.64
2024-04-22T01:25:59.034Z,82.00
2024-04-22T01:28:25.778Z,81.93
2024-04-22T01:30:52.419Z,82.29
2024-04-22T01:33:19.103Z,82.32
2024-04-22T01:35:45.750Z,82.46
2024-04-22T01:38:12.376Z,82.48
2024-04-22T01:40:39.060Z,82.77
2024-04-22T01:43:05.853Z,82.66
2024-04-22T01:45:32.452Z,83.17
2024-04-22T01:47:59.143Z,83.33
2024-04-22T01:50:25.768Z,83.66
2024-04-22T01:52:52.367Z,84.00
2024-04-22T01:55:19.098Z,84.13
2024-04-22T01:57:45.701Z,83.96
2024-04-22T02:00:13.169Z,84.30
2024-04-22T02:02:39.938Z,84.35
2024-04-22T02:05:06.881Z,84.20
2024-04-22T02:07:33.538Z,84.34
2024-04-22T02:10:08.892Z,84.23
2024-04-22T02:12:43.978Z,84.37
2024-04-22T02:15:10.565Z,84.43
2024-04-22T02:17:37.177Z,84.51
2024-04-22T02:20:04.449Z,84.67
2024-04-22T02:22:31.048Z,84.56
2024-04-22T02:24:57.647Z,84.68
2024-04-22T02:27:24.214Z,84.43
2024-04-22T02:29:50.770Z,84.26
2024-04-22T02:32:21.407Z,83.98
2024-04-22T02:34:48.051Z,84.31
2024-04-22T02:37:14.630Z,84.08
2024-04-22T02:39:41.219Z,84.07
2024-04-22T02:42:07.901Z,83.85
2024-04-22T02:44:34.730Z,84.06
2024-04-22T02:47:01.431Z,83.84
2024-04-22T02:49:30.730Z,83.86
2024-04-22T02:51:57.363Z,83.52
2024-04-22T02:54:29.287Z,83.07
2024-04-22T02:56:56.064Z,81.64
2024-04-22T02:59:22.707Z,81.24
2024-04-22T03:01:52.985Z,80.59
2024-04-22T03:04:19.541Z,80.45
2024-04-22T03:06:48.210Z,79.06
2024-04-22T03:09:14.930Z,78.15
2024-04-22T03:11:41.576Z,76.84
2024-04-22T03:14:08.190Z,76.04
2024-04-22T03:16:34.828Z,75.23
2024-04-22T03:19:01.418Z,74.88
2024-04-22T03:21:28.234Z,73.73
2024-04-22T03:23:54.846Z,73.75
2024-04-22T03:26:21.466Z,73.00
2024-04-22T03:28:48.092Z,73.17
2024-04-22T03:31:15.196Z,73.51
2024-04-22T03:33:42.008Z,73.44
2024-04-22T03:36:09.002Z,73.57
2024-04-22T03:38:35.536Z,73.33
2024-04-22T03:41:02.274Z,74.16
2024-04-22T03:43:28.891Z,72.66
2024-04-22T03:46:14.203Z,74.15
2024-04-22T03:48:59.524Z,74.32
2024-04-22T03:51:26.344Z,74.46
2024-04-22T03:53:52.935Z,74.26
2024-04-22T03:56:19.510Z,73.75
2024-04-22T03:58:46.103Z,73.53
2024-04-22T04:01:12.847Z,73.44
2024-04-22T04:03:39.459Z,73.12
2024-04-22T04:06:06.134Z,73.27
2024-04-22T04:08:35.848Z,73.39
2024-04-22T04:11:11.061Z,74.10
2024-04-22T04:13:37.756Z,73.88
2024-04-22T04:16:04.570Z,73.88
2024-04-22T04:18:31.188Z,74.24
2024-04-22T04:20:57.740Z,74.02
2024-04-22T04:23:24.279Z,72.96
2024-04-22T04:25:50.908Z,73.19
2024-04-22T04:28:17.540Z,73.86
2024-04-22T04:30:44.115Z,73.76
2024-04-22T04:33:10.716Z,73.31
2024-04-22T04:35:37.341Z,73.40
2024-04-22T04:38:04.037Z,72.66
2024-04-22T04:40:30.635Z,73.04
2024-04-22T04:42:57.239Z,72.60
2024-04-22T04:45:24.328Z,73.34
2024-04-22T04:47:54.769Z,73.63
2024-04-22T04:50:21.398Z,74.43
2024-04-22T04:52:48.009Z,74.67
2024-04-22T04:55:14.670Z,74.25
2024-04-22T04:57:41.264Z,74.57
2024-04-22T05:00:08.687Z,74.06
2024-04-22T05:02:35.342Z,71.56
2024-04-22T05:05:01.963Z,70.26
2024-04-22T05:07:29.010Z,69.44
2024-04-22T05:09:55.574Z,68.81
2024-04-22T05:12:22.115Z,67.12
2024-04-22T05:14:48.707Z,66.46
2024-04-22T05:17:15.333Z,66.64
2024-04-22T05:19:42.279Z,66.74
2024-04-22T05:22:08.889Z,66.34
2024-04-22T05:24:35.535Z,66.58
2024-04-22T05:27:02.159Z,66.91
2024-04-22T05:29:29.092Z,65.24
2024-04-22T05:31:55.650Z,65.29
2024-04-22T05:34:41.117Z,64.30
2024-04-22T05:37:08.658Z,62.32
2024-04-22T05:39:35.255Z,62.71
2024-04-22T05:42:01.861Z,61.77
2024-04-22T05:44:28.524Z,61.40
2024-04-22T05:46:55.086Z,61.83
2024-04-22T05:49:22.978Z,60.16
2024-04-22T05:51:51.017Z,59.83
2024-04-22T05:54:17.612Z,60.00
2024-04-22T05:56:44.756Z,57.15
2024-04-22T05:59:12.954Z,56.47
2024-04-22T06:01:42.115Z,53.46
2024-04-22T06:04:09.271Z,53.72
2024-04-22T06:06:38.889Z,53.65
2024-04-22T06:09:06.783Z,52.37
2024-04-22T06:11:34.035Z,53.40
2024-04-22T06:14:00.810Z,51.59
2024-04-22T06:16:28.838Z,52.63
2024-04-22T06:18:55.988Z,49.58
2024-04-22T06:21:25.401Z,49.02
2024-04-22T06:23:52.460Z,49.41
2024-04-22T06:26:19.401Z,50.51
2024-04-22T06:28:46.696Z,49.61
2024-04-22T06:31:13.556Z,49.10
2024-04-22T06:33:48.436Z,48.67
2024-04-22T06:36:15.510Z,47.21
2024-04-22T06:38:43.578Z,46.16
2024-04-22T06:41:10.299Z,45.85
2024-04-22T06:43:39.770Z,46.90
2024-04-22T06:46:06.832Z,46.62
2024-04-22T06:48:33.436Z,47.31
2024-04-22T06:51:01.812Z,47.04
2024-04-22T06:53:29.064Z,46.30
2024-04-22T06:55:55.773Z,46.98
2024-04-22T06:58:22.501Z,46.08
2024-04-22T07:00:49.203Z,47.30
2024-04-22T07:03:16.045Z,46.55
2024-04-22T07:05:42.681Z,44.54
2024-04-22T07:08:09.272Z,45.66
2024-04-22T07:10:35.930Z,45.13
2024-04-22T07:13:02.616Z,45.76
2024-04-22T07:15:29.462Z,44.05
2024-04-22T07:17:56.093Z,44.33
2024-04-22T07:20:22.888Z,43.79
2024-04-22T07:22:49.483Z,44.04
2024-04-22T07:25:16.145Z,45.27
2024-04-22T07:27:43.898Z,45.15
2024-04-22T07:30:11.872Z,43.30
2024-04-22T07:32:38.807Z,43.44
2024-04-22T07:35:06.002Z,43.99
2024-04-22T07:37:37.947Z,43.71
2024-04-22T07:40:07.508Z,41.99
2024-04-22T07:42:34.100Z,41.76
2024-04-22T07:45:00.649Z,41.90
2024-04-22T07:47:27.248Z,41.24
2024-04-22T07:49:53.850Z,42.33
2024-04-22T07:52:20.662Z,41.27
2024-04-22T07:54:47.821Z,41.37
2024-04-22T07:57:14.668Z,41.78
2024-04-22T07:59:41.493Z,42.39
2024-04-22T08:02:08.582Z,42.49
2024-04-22T08:04:35.569Z,42.59
2024-04-22T08:07:04.675Z,42.56
2024-04-22T08:09:31.886Z,44.30
2024-04-22T08:11:58.949Z,43.09
2024-04-22T08:14:25.570Z,42.71
2024-04-22T08:16:52.504Z,42.59
2024-04-22T08:19:19.195Z,41.76
2024-04-22T08:21:46.370Z,40.83
2024-04-22T08:24:12.993Z,40.91
2024-04-22T08:26:39.550Z,39.72
2024-04-22T08:29:06.149Z,38.87
2024-04-22T08:31:33.617Z,36.91
2024-04-22T08:34:00.199Z,38.04
2024-04-22T08:36:27.015Z,39.42
2024-04-22T08:38:53.582Z,38.73
2024-04-22T08:41:21.808Z,38.24
2024-04-22T08:43:49.140Z,38.41
2024-04-22T08:46:15.900Z,39.08
2024-04-22T08:48:42.631Z,41.30
2024-04-22T08:51:12.640Z,39.63
2024-04-22T08:53:39.238Z,41.72
2024-04-22T08:56:07.403Z,42.09
2024-04-22T08:58:34.114Z,42.04
2024-04-22T09:01:05.620Z,40.28
2024-04-22T09:03:32.207Z,40.22
2024-04-22T09:05:59.019Z,40.37
2024-04-22T09:08:25.926Z,41.21
2024-04-22T09:11:27.239Z,39.60
2024-04-22T09:13:45.886Z,38.90
2024-04-22T09:16:17.383Z,38.07
2024-04-22T09:18:44.358Z,38.72
2024-04-22T09:21:12.328Z,37.28
2024-04-22T09:23:39.136Z,38.09
2024-04-22T09:26:06.978Z,37.53
2024-04-22T09:28:38.188Z,37.28
2024-04-22T09:31:06.589Z,36.67
2024-04-22T09:33:37.906Z,35.47
2024-04-22T09:36:05.842Z,34.85
2024-04-22T09:38:45.483Z,35.33
2024-04-22T09:41:14.721Z,34.48
2024-04-22T09:43:48.265Z,34.84
2024-04-22T09:46:18.940Z,35.60
2024-04-22T09:48:47.347Z,34.30
2024-04-22T09:51:15.280Z,34.01
2024-04-22T09:53:42.775Z,35.67
2024-04-22T09:56:13.280Z,34.83
2024-04-22T09:58:41.588Z,34.55
2024-04-22T10:01:08.573Z,34.36
2024-04-22T10:03:35.501Z,34.80
2024-04-22T10:06:05.091Z,34.69
2024-04-22T10:08:33.328Z,35.56
2024-04-22T10:11:10.756Z,35.90
2024-04-22T10:13:38.194Z,36.61
2024-04-22T10:16:06.121Z,34.56
2024-04-22T10:18:33.481Z,35.14
2024-04-22T10:21:02.946Z,35.03
2024-04-22T10:23:30.141Z,34.96
2024-04-22T10:25:56.792Z,34.65
2024-04-22T10:28:23.487Z,34.41
2024-04-22T10:30:50.118Z,37.32
2024-04-22T10:33:16.809Z,35.25
2024-04-22T10:35:43.469Z,35.22
2024-04-22T10:38:10.009Z,33.79
2024-04-22T10:40:36.735Z,34.51
2024-04-22T10:43:03.428Z,32.24
2024-04-22T10:45:30.119Z,31.28
2024-04-22T10:48:07.784Z,32.21
2024-04-22T10:50:43.855Z,31.39
2024-04-22T10:53:10.621Z,31.26
2024-04-22T10:55:37.552Z,31.65
2024-04-22T10:58:05.907Z,31.55
2024-04-22T11:00:33.402Z,31.53
2024-04-22T11:03:00.968Z,32.50
2024-04-22T11:05:28.598Z,32.38
2024-04-22T11:07:55.547Z,32.57
2024-04-22T11:10:31.031Z,34.47
2024-04-22T11:13:01.773Z,35.87
2024-04-22T11:15:28.388Z,38.15
2024-04-22T11:18:05.412Z,39.88
2024-04-22T11:20:32.664Z,41.49
2024-04-22T11:22:59.792Z,43.08
2024-04-22T11:25:26.511Z,44.37
2024-04-22T11:27:53.238Z,46.10
2024-04-22T11:30:20.123Z,47.29
2024-04-22T11:32:46.853Z,48.57
2024-04-22T11:35:13.789Z,49.13
2024-04-22T11:37:41.287Z,50.50
2024-04-22T11:40:10.303Z,50.93
2024-04-22T11:42:36.929Z,51.13
2024-04-22T11:45:06.483Z,51.55
2024-04-22T11:47:33.641Z,52.07
2024-04-22T11:52:26.867Z,51.09
2024-04-22T11:54:53.524Z,50.83
2024-04-22T11:57:20.161Z,50.29
2024-04-22T11:59:46.744Z,49.49
2024-04-22T12:02:17.930Z,49.36
2024-04-22T12:04:45.815Z,48.11
2024-04-22T12:07:13.833Z,47.26
2024-04-22T12:09:40.568Z,47.17
2024-04-22T12:12:07.774Z,46.27
2024-04-22T12:14:34.443Z,45.42
2024-04-22T12:17:01.189Z,44.90
2024-04-22T12:19:28.399Z,43.09
2024-04-22T12:21:55.160Z,44.11
2024-04-22T12:24:21.758Z,43.46
2024-04-22T12:26:48.343Z,43.47
2024-04-22T12:29:14.910Z,43.09
2024-04-22T12:31:41.707Z,42.93
2024-04-22T12:34:12.859Z,43.57
2024-04-22T12:36:41.095Z,43.64
2024-04-22T12:39:07.754Z,41.57
2024-04-22T12:41:34.395Z,40.87
2024-04-22T12:44:03.706Z,41.16
2024-04-22T12:46:56.968Z,41.98
2024-04-22T12:49:42.453Z,40.58
2024-04-22T12:52:10.076Z,41.48
2024-04-22T12:54:36.755Z,41.09
2024-04-22T12:57:03.479Z,42.39
2024-04-22T12:59:30.106Z,40.07
2024-04-22T13:01:57.294Z,39.53
2024-04-22T13:04:24.501Z,36.82
2024-04-22T13:06:51.280Z,36.82
2024-04-22T13:09:18.295Z,36.37
2024-04-22T13:11:45.609Z,36.74
2024-04-22T13:14:12.549Z,35.83
2024-04-22T13:16:39.245Z,35.42
2024-04-22T13:19:07.797Z,37.01
2024-04-22T13:21:35.086Z,36.58
2024-04-22T13:24:01.862Z,36.44
2024-04-22T13:26:28.509Z,36.47
2024-04-22T13:28:55.157Z,38.86
2024-04-22T13:31:23.033Z,39.44
2024-04-22T13:33:54.383Z,43.38
2024-04-22T13:36:21.127Z,44.99
2024-04-22T13:38:48.181Z,45.49
2024-04-22T13:41:14.796Z,45.81
2024-04-22T13:43:41.434Z,45.47
2024-04-22T13:46:08.046Z,46.62
2024-04-22T13:48:34.748Z,47.21
2024-04-22T13:51:02.255Z,48.28
2024-04-22T13:53:32.082Z,48.47
2024-04-22T13:55:59.753Z,46.85
2024-04-22T13:58:27.122Z,49.20
2024-04-22T14:00:54.130Z,48.74
2024-04-22T14:03:20.969Z,49.45
2024-04-22T14:05:47.570Z,50.06
2024-04-22T14:08:14.183Z,50.83
2024-04-22T14:10:40.874Z,51.13
2024-04-22T14:13:07.724Z,51.83
2024-04-22T14:15:44.826Z,51.92
2024-04-22T14:18:15.206Z,51.50
2024-04-22T14:20:42.573Z,50.88
2024-04-22T14:23:09.145Z,52.24
2024-04-22T14:25:35.974Z,52.54
2024-04-22T14:28:02.664Z,51.76
2024-04-22T14:30:29.273Z,50.96
2024-04-22T14:32:56.094Z,47.93
2024-04-22T14:35:22.794Z,49.25
2024-04-22T14:37:49.492Z,48.86
2024-04-22T14:40:16.290Z,50.42
2024-04-22T14:42:42.845Z,49.91
2024-04-22T14:45:09.589Z,49.93
2024-04-22T14:47:36.285Z,49.82
2024-04-22T14:50:03.319Z,50.18
2024-04-22T14:52:29.897Z,49.25
2024-04-22T14:54:56.476Z,48.87
2024-04-22T14:57:23.144Z,48.52
2024-04-22T14:59:49.676Z,49.11
2024-04-22T15:02:17.714Z,49.28
2024-04-22T15:04:44.468Z,47.76
2024-04-22T15:07:11.176Z,47.58
2024-04-22T15:09:47.091Z,47.49
2024-04-22T15:12:14.431Z,47.43
2024-04-22T15:14:41.053Z,47.00
2024-04-22T15:17:07.869Z,48.31
2024-04-22T15:19:34.768Z,46.70
2024-04-22T15:22:01.466Z,45.90
2024-04-22T15:24:28.075Z,45.47
2024-04-22T15:26:54.808Z,47.47
2024-04-22T15:29:21.545Z,45.86
2024-04-22T15:31:48.223Z,45.63
2024-04-22T15:34:14.923Z,45.76
2024-04-22T15:36:41.527Z,44.75
2024-04-22T15:39:08.680Z,45.12
2024-04-22T15:41:36.215Z,43.70
2024-04-22T15:44:04.488Z,44.88
2024-04-22T15:46:31.657Z,43.88
2024-04-22T15:48:58.335Z,43.07
2024-04-22T15:51:25.256Z,43.02
2024-04-22T15:53:52.059Z,42.79
2024-04-22T15:56:18.928Z,43.23
2024-04-22T15:58:45.581Z,43.55
2024-04-22T16:01:12.219Z,44.09
2024-04-22T16:03:39.229Z,45.11
2024-04-22T16:06:06.502Z,46.13
2024-04-22T16:08:33.261Z,46.20
2024-04-22T16:10:59.988Z,46.12
2024-04-22T16:13:26.652Z,46.58
2024-04-22T16:15:53.288Z,45.14
2024-04-22T16:18:20.160Z,44.89
2024-04-22T16:20:56.379Z,44.22
2024-04-22T16:23:31.740Z,44.92
2024-04-22T16:26:00.190Z,43.88
2024-04-22T16:28:26.894Z,44.42
2024-04-22T16:30:53.656Z,45.11
2024-04-22T16:33:20.243Z,44.71
2024-04-22T16:35:46.820Z,44.63
2024-04-22T16:38:13.365Z,44.84
2024-04-22T16:40:40.248Z,44.46
2024-04-22T16:43:08.766Z,44.85
2024-04-22T16:45:35.355Z,44.42
2024-04-22T16:48:02.090Z,45.34
2024-04-22T16:50:28.849Z,46.16
2024-04-22T16:52:55.560Z,44.75
2024-04-22T16:55:22.302Z,45.07
2024-04-22T16:57:48.916Z,45.65
2024-04-22T17:00:15.789Z,45.62
2024-04-22T17:02:42.456Z,46.58
2024-04-22T17:05:09.302Z,46.26
2024-04-22T17:07:36.816Z,47.00
2024-04-22T17:10:07.582Z,47.45
2024-04-22T17:12:34.379Z,47.16
2024-04-22T17:15:01.317Z,47.84
2024-04-22T17:17:28.213Z,47.88
2024-04-22T17:19:55.047Z,48.81
2024-04-22T17:22:21.765Z,48.49
2024-04-22T17:24:51.859Z,48.81
2024-04-22T17:27:21.535Z,49.48
2024-04-22T17:29:48.357Z,49.63
2024-04-22T17:32:15.686Z,50.22
2024-04-22T17:34:42.328Z,49.98
2024-04-22T17:37:10.329Z,49.26
2024-04-22T17:39:38.089Z,49.94
2024-04-22T17:42:05.566Z,49.10
2024-04-22T17:44:32.168Z,50.14
2024-04-22T17:46:59.802Z,49.89
2024-04-22T17:49:26.589Z,49.39
2024-04-22T17:51:53.296Z,49.97
2024-04-22T17:54:19.874Z,50.12
2024-04-22T17:56:52.887Z,49.76
2024-04-22T17:59:23.417Z,50.26
2024-04-22T18:01:50.271Z,51.06
2024-04-22T18:04:16.975Z,50.98
2024-04-22T18:06:43.705Z,51.24
2024-04-22T18:09:10.748Z,52.18
2024-04-22T18:11:37.759Z,52.57
2024-04-22T18:14:04.645Z,53.29
2024-04-22T18:16:31.245Z,53.26
2024-04-22T18:18:59.580Z,54.30
2024-04-22T18:21:26.387Z,55.78
2024-04-22T18:23:53.827Z,57.09
2024-04-22T18:26:20.757Z,55.68
2024-04-22T18:28:47.620Z,56.56
2024-04-22T18:31:15.987Z,57.28
2024-04-22T18:33:44.386Z,57.73
2024-04-22T18:36:11.042Z,58.21
2024-04-22T18:38:37.906Z,58.38
2024-04-22T18:41:05.628Z,58.69
2024-04-22T18:43:34.468Z,58.22
2024-04-22T18:46:01.024Z,58.37
2024-04-22T18:48:29.607Z,58.74
2024-04-22T18:50:58.816Z,58.53
2024-04-22T18:53:25.842Z,58.67
2024-04-22T18:55:52.742Z,58.50
2024-04-22T18:58:19.375Z,58.58
2024-04-22T19:00:50.075Z,58.75
2024-04-22T19:03:16.820Z,57.07
2024-04-22T19:05:43.510Z,56.31
2024-04-22T19:08:10.154Z,55.19
2024-04-22T19:10:39.277Z,54.97
2024-04-22T19:13:06.706Z,55.50
2024-04-22T19:15:33.295Z,55.03
2024-04-22T19:18:00.052Z,55.46
2024-04-22T19:20:26.704Z,56.17
2024-04-22T19:22:53.319Z,56.76
2024-04-22T19:25:20.161Z,57.19
2024-04-22T19:27:47.118Z,57.48
2024-04-22T19:30:13.748Z,57.36
2024-04-22T19:32:40.516Z,57.61
2024-04-22T19:35:07.393Z,57.25
2024-04-22T19:37:34.028Z,56.94
2024-04-22T19:40:00.619Z,58.30
2024-04-22T19:42:27.172Z,58.42
2024-04-22T19:44:55.917Z,57.96
2024-04-22T19:47:24.076Z,58.81
2024-04-22T19:49:50.751Z,58.33
2024-04-22T19:52:17.462Z,58.96
2024-04-22T19:54:44.048Z,58.89
2024-04-22T19:57:10.622Z,60.08
2024-04-22T19:59:38.704Z,60.56
2024-04-22T20:02:05.430Z,61.10
2024-04-22T20:04:32.334Z,61.36
2024-04-22T20:06:59.062Z,62.33
2024-04-22T20:09:25.732Z,62.36
2024-04-22T20:11:52.329Z,62.73
2024-04-22T20:14:19.593Z,63.30
2024-04-22T20:16:59.669Z,64.04
2024-04-22T20:19:29.087Z,63.42
2024-04-22T20:21:55.768Z,63.74
2024-04-22T20:24:23.002Z,64.14
2024-04-22T20:26:49.573Z,65.09
2024-04-22T20:29:18.471Z,65.18
2024-04-22T20:31:45.375Z,65.54
2024-04-22T20:34:12.186Z,65.99
2024-04-22T20:36:39.388Z,66.58
2024-04-22T20:39:05.998Z,66.82
2024-04-22T20:41:32.717Z,67.73
2024-04-22T20:44:04.696Z,68.18
2024-04-22T20:46:31.374Z,68.13
2024-04-22T20:48:57.987Z,69.20
2024-04-22T20:51:24.544Z,69.49
2024-04-22T20:53:51.116Z,69.88
2024-04-22T20:56:18.644Z,70.09
2024-04-22T20:58:45.318Z,70.24
2024-04-22T21:01:11.980Z,70.72
2024-04-22T21:03:39.429Z,71.61
2024-04-22T21:06:06.214Z,71.99
2024-04-22T21:08:33.516Z,72.31
2024-04-22T21:11:02.566Z,72.38
2024-04-22T21:13:32.772Z,72.95
2024-04-22T21:16:02.332Z,73.49
2024-04-22T21:18:29.177Z,73.21
2024-04-22T21:20:56.270Z,74.16
2024-04-22T21:23:22.881Z,74.76
2024-04-22T21:25:49.599Z,74.76
2024-04-22T21:28:16.244Z,74.88
2024-04-22T21:30:42.838Z,74.95
2024-04-22T21:35:38.897Z,75.39
2024-04-22T21:38:05.558Z,75.99
2024-04-22T21:40:32.275Z,75.99
2024-04-22T21:42:58.961Z,76.42
2024-04-22T21:45:25.500Z,76.39
2024-04-22T21:47:52.403Z,76.65
2024-04-22T21:50:18.983Z,76.70
2024-04-22T21:52:45.557Z,76.59
2024-04-22T21:55:13.052Z,76.88
2024-04-22T21:58:17.476Z,77.01
2024-04-22T22:01:22.133Z,76.93
2024-04-22T22:04:26.614Z,77.14
2024-04-22T22:07:15.841Z,77.14
2024-04-22T22:09:42.839Z,76.99
2024-04-22T22:12:09.466Z,77.47
2024-04-22T22:14:36.306Z,77.43
2024-04-22T22:17:03.468Z,77.55
2024-04-22T22:19:31.567Z,77.76
2024-04-22T22:21:58.181Z,78.08
2024-04-22T22:24:24.758Z,78.03
2024-04-22T22:26:51.316Z,78.40
2024-04-22T22:29:17.890Z,78.22
2024-04-22T22:31:44.529Z,78.60
2024-04-22T22:34:11.110Z,78.78
2024-04-22T22:36:37.712Z,78.97
2024-04-22T22:39:04.278Z,79.19
2024-04-22T22:41:30.826Z,79.19
2024-04-22T22:43:57.411Z,79.09
2024-04-22T22:46:24.135Z,78.93
2024-04-22T22:48:50.802Z,78.94
2024-04-22T22:51:17.337Z,79.43
2024-04-22T22:53:44.006Z,79.58
2024-04-22T22:56:10.555Z,79.41
2024-04-22T22:58:37.546Z,79.86
2024-04-22T23:01:04.288Z,80.11
2024-04-22T23:03:30.867Z,80.33
2024-04-22T23:05:57.429Z,80.51
2024-04-22T23:08:23.957Z,81.25
2024-04-22T23:10:50.555Z,81.35
2024-04-22T23:13:17.438Z,81.59
2024-04-22T23:15:44.048Z,81.59
2024-04-22T23:18:10.615Z,81.68
2024-04-22T23:20:37.204Z,81.63
2024-04-22T23:23:04.005Z,81.45
2024-04-22T23:25:30.603Z,81.90
2024-04-22T23:27:57.198Z,81.98
2024-04-22T23:30:23.749Z,82.08
2024-04-22T23:32:50.424Z,82.18
2024-04-22T23:35:17.016Z,82.43
2024-04-22T23:37:43.610Z,82.75
2024-04-22T23:40:10.458Z,82.37
2024-04-22T23:42:37.047Z,82.27
2024-04-22T23:45:03.878Z,82.41
2024-04-22T23:47:30.435Z,82.76
2024-04-22T23:49:57.497Z,82.85
2024-04-22T23:52:24.129Z,83.07
2024-04-22T23:54:50.766Z,82.88
2024-04-22T23:57:17.300Z,83.18
2024-04-22T23:59:44.047Z,82.93
